Time;durP1;ratioP1;P1;durP2;ratioP2;P2;SDS_P1;SDS_P2;PMS_P1;PMS_P2;Temp;Humidity;BMP_temperature;BMP_pressure;BME280_temperature;BME280_humidity;BME280_pressure;Samples;Min_cycle;Max_cycle;Signal;HPM_P1;HPM_P2
2022/08/09 00:00:32;;;;;;;3.92;1.80;;;18.50;99.90;;;;;;4212734;28;20024;-64
2022/08/09 00:02:34;;;;;;;3.25;1.95;;;18.50;99.90;;;;;;4214050;28;20020;-67
2022/08/09 00:04:35;;;;;;;2.15;2.00;;;18.50;99.90;;;;;;4212894;28;20173;-65
2022/08/09 00:06:36;;;;;;;4.35;2.03;;;18.50;99.90;;;;;;4213449;28;20050;-66
2022/08/09 00:08:37;;;;;;;2.20;2.08;;;18.50;99.90;;;;;;4213286;28;20498;-65
2022/08/09 00:10:39;;;;;;;2.10;1.80;;;18.50;99.90;;;;;;4213226;28;20036;-65
2022/08/09 00:12:40;;;;;;;2.55;2.17;;;18.50;99.90;;;;;;4213455;28;20073;-65
2022/08/09 00:14:42;;;;;;;4.05;2.15;;;18.50;99.90;;;;;;4212734;28;20040;-65
2022/08/09 00:16:43;;;;;;;2.88;2.60;;;18.50;99.90;;;;;;4213634;28;20036;-64
2022/08/09 00:18:45;;;;;;;2.40;2.20;;;18.50;99.90;;;;;;4212127;28;20101;-65
2022/08/09 00:20:46;;;;;;;3.10;2.40;;;18.50;99.90;;;;;;4213786;28;20036;-65
2022/08/09 00:22:48;;;;;;;3.22;2.83;;;18.50;99.90;;;;;;4211882;28;20097;-66
2022/08/09 00:24:49;;;;;;;5.47;2.80;;;18.40;99.90;;;;;;4214048;28;20431;-65
2022/08/09 00:26:50;;;;;;;4.43;2.72;;;18.40;99.90;;;;;;4210989;28;20044;-66
2022/08/09 00:28:52;;;;;;;8.32;3.22;;;18.40;99.90;;;;;;4213666;28;20422;-63
2022/08/09 00:30:55;;;;;;;3.83;3.42;;;18.40;99.90;;;;;;4212354;28;20418;-68
2022/08/09 00:32:56;;;;;;;4.35;3.30;;;18.40;99.90;;;;;;4213390;28;20028;-67
2022/08/09 00:34:57;;;;;;;3.38;3.08;;;18.40;99.90;;;;;;4212036;28;20081;-67
2022/08/09 00:36:59;;;;;;;6.13;4.10;;;18.40;99.90;;;;;;4212850;28;20040;-65
2022/08/09 00:39:01;;;;;;;5.13;3.75;;;18.40;99.90;;;;;;4212338;28;20062;-64
2022/08/09 00:41:02;;;;;;;6.40;4.07;;;18.40;99.90;;;;;;4212299;28;20184;-64
2022/08/09 00:43:03;;;;;;;8.65;4.18;;;18.40;99.90;;;;;;4212764;28;20104;-64
2022/08/09 00:45:06;;;;;;;4.80;4.38;;;18.40;99.90;;;;;;4211160;28;20036;-70
2022/08/09 00:47:07;;;;;;;7.90;4.22;;;18.30;99.90;;;;;;4213110;28;20069;-64
2022/08/09 00:49:10;;;;;;;6.55;4.75;;;18.30;99.90;;;;;;4211939;28;20442;-66
2022/08/09 00:51:11;;;;;;;7.57;4.95;;;18.30;99.90;;;;;;4213317;28;20062;-65
2022/08/09 00:53:12;;;;;;;5.20;4.47;;;18.30;99.90;;;;;;4211378;28;20556;-67
2022/08/09 00:55:13;;;;;;;5.90;4.93;;;18.30;99.90;;;;;;4213540;28;20040;-65
2022/08/09 00:57:14;;;;;;;6.50;5.07;;;18.30;99.90;;;;;;4211629;28;20086;-66
2022/08/09 00:59:16;;;;;;;6.40;5.18;;;18.30;99.90;;;;;;4213332;28;20032;-65
2022/08/09 01:01:20;;;;;;;6.25;4.53;;;18.30;99.90;;;;;;4211946;28;20048;-65
2022/08/09 01:03:27;;;;;;;7.28;5.07;;;18.40;99.90;;;;;;4212071;28;20445;-70
2022/08/09 01:06:10;;;;;;;6.10;5.38;;;18.30;99.90;;;;;;4210219;28;20515;-67
2022/08/09 01:08:32;;;;;;;7.80;5.15;;;18.40;99.90;;;;;;4173139;28;20093;-65
2022/08/09 01:10:56;;;;;;;8.15;4.78;;;18.40;99.90;;;;;;4211800;28;20434;-65
2022/08/09 01:13:31;;;;;;;7.95;5.05;;;18.40;99.90;;;;;;4212645;28;20024;-64
2022/08/09 01:15:39;;;;;;;9.07;5.47;;;18.50;99.90;;;;;;4212235;28;20561;-65
2022/08/09 01:17:49;;;;;;;6.32;5.05;;;18.50;99.90;;;;;;4212272;28;20422;-70
2022/08/09 01:19:57;;;;;;;5.50;4.88;;;18.60;99.90;;;;;;4212193;28;20078;-69
2022/08/09 01:22:38;;;;;;;5.60;4.20;;;18.60;99.90;;;;;;4211927;28;20056;-70
2022/08/09 01:24:49;;;;;;;5.40;4.55;;;18.60;99.90;;;;;;4212789;28;20426;-70
2022/08/09 01:27:17;;;;;;;5.20;4.22;;;18.60;99.90;;;;;;4211716;28;20081;-70
2022/08/09 01:29:27;;;;;;;5.80;3.92;;;18.60;99.90;;;;;;4212712;28;20537;-71
2022/08/09 01:31:30;;;;;;;7.18;3.92;;;18.60;99.90;;;;;;4211054;28;20032;-71
2022/08/09 01:33:37;;;;;;;4.38;3.97;;;18.50;99.90;;;;;;4212669;28;20414;-70
2022/08/09 01:36:02;;;;;;;4.18;3.78;;;18.60;99.90;;;;;;4208923;28;20081;-71
2022/08/09 01:38:09;;;;;;;4.20;3.50;;;18.60;99.90;;;;;;4212351;28;20418;-69
2022/08/09 01:40:13;;;;;;;4.00;3.60;;;18.60;99.90;;;;;;4211206;28;20024;-68
2022/08/09 01:42:15;;;;;;;4.78;3.67;;;18.60;99.90;;;;;;4211592;28;20121;-71
2022/08/09 01:44:16;;;;;;;6.78;3.33;;;18.50;99.90;;;;;;4211250;28;20028;-71
2022/08/09 01:46:26;;;;;;;7.63;3.70;;;18.50;99.90;;;;;;4210807;28;20106;-70
2022/08/09 01:48:29;;;;;;;4.32;3.00;;;18.50;99.90;;;;;;4210536;28;20082;-66
2022/08/09 01:50:30;;;;;;;7.35;3.55;;;18.60;99.90;;;;;;4212109;28;20569;-72
2022/08/09 01:52:34;;;;;;;3.60;3.20;;;18.50;99.90;;;;;;4211317;28;20028;-68
2022/08/09 01:54:39;;;;;;;3.53;3.10;;;18.40;99.90;;;;;;4211427;28;20032;-65
2022/08/09 01:56:44;;;;;;;3.17;2.88;;;18.40;99.90;;;;;;4211583;28;20048;-69
2022/08/09 01:58:45;;;;;;;5.43;3.17;;;18.40;99.90;;;;;;4209775;28;20196;-68
2022/08/09 02:00:48;;;;;;;4.43;2.85;;;18.40;99.90;;;;;;4211852;28;20077;-67
2022/08/09 02:02:50;;;;;;;7.65;3.05;;;18.40;99.90;;;;;;4210767;28;20557;-66
2022/08/09 02:04:54;;;;;;;4.30;3.35;;;18.50;99.90;;;;;;4211666;28;20427;-66
2022/08/09 02:07:14;;;;;;;3.78;3.00;;;18.50;99.90;;;;;;4210419;28;20036;-67
2022/08/09 02:09:17;;;;;;;4.35;3.13;;;18.60;99.90;;;;;;4211467;28;20085;-66
2022/08/09 02:11:19;;;;;;;4.10;2.92;;;18.60;99.90;;;;;;4210932;28;20028;-69
2022/08/09 02:13:23;;;;;;;4.90;2.70;;;18.60;99.90;;;;;;4211609;28;20048;-70
2022/08/09 02:15:25;;;;;;;4.72;2.92;;;18.60;99.90;;;;;;4209007;28;20032;-72
2022/08/09 02:17:30;;;;;;;8.48;3.15;;;18.60;99.90;;;;;;4211920;28;20521;-69
2022/08/09 02:19:31;;;;;;;2.97;2.72;;;18.60;99.90;;;;;;4210718;28;20024;-72
2022/08/09 02:21:39;;;;;;;4.60;2.72;;;18.60;99.90;;;;;;4211512;28;20093;-72
2022/08/09 02:23:51;;;;;;;10.73;3.45;;;18.60;99.90;;;;;;4210236;28;20047;-67
2022/08/09 02:25:56;;;;;;;2.85;2.47;;;18.70;99.90;;;;;;4211891;28;20090;-69
2022/08/09 02:28:04;;;;;;;3.22;2.50;;;18.70;99.90;;;;;;4210744;28;20032;-67
2022/08/09 02:30:07;;;;;;;2.70;2.50;;;18.70;99.90;;;;;;4211801;28;20033;-68
2022/08/09 02:32:13;;;;;;;2.60;2.40;;;18.70;99.90;;;;;;4210607;28;20024;-70
2022/08/09 02:34:19;;;;;;;2.80;2.60;;;18.70;99.90;;;;;;4210911;28;20085;-66
2022/08/09 02:36:30;;;;;;;3.40;2.97;;;18.60;99.90;;;;;;4210268;28;20061;-72
2022/08/09 02:38:44;;;;;;;4.20;2.53;;;18.60;99.90;;;;;;4211829;28;20089;-71
2022/08/09 02:40:47;;;;;;;3.47;2.72;;;18.50;99.90;;;;;;4210696;28;20477;-71
2022/08/09 02:42:50;;;;;;;5.00;3.10;;;18.50;99.90;;;;;;4211554;28;20024;-71
2022/08/09 02:44:57;;;;;;;3.05;2.75;;;18.40;99.90;;;;;;4209945;28;20105;-71
2022/08/09 02:47:05;;;;;;;4.60;3.05;;;18.40;99.90;;;;;;4210933;28;20044;-66
2022/08/09 02:49:09;;;;;;;3.90;3.13;;;18.40;99.90;;;;;;4210317;28;20032;-66
2022/08/09 02:51:14;;;;;;;3.83;3.25;;;18.40;99.90;;;;;;4211509;28;20074;-67
2022/08/09 02:53:24;;;;;;;3.67;3.28;;;18.40;99.90;;;;;;4210412;28;20050;-68
2022/08/09 02:55:26;;;;;;;5.43;3.33;;;18.40;99.90;;;;;;4211595;28;20020;-68
2022/08/09 02:57:30;;;;;;;5.97;3.63;;;18.40;99.90;;;;;;4210217;28;20102;-69
2022/08/09 02:59:34;;;;;;;4.03;3.40;;;18.40;99.90;;;;;;4210732;28;20040;-66
2022/08/09 03:01:37;;;;;;;3.47;2.97;;;18.40;99.90;;;;;;4210705;28;20483;-69
2022/08/09 03:03:39;;;;;;;7.22;3.60;;;18.30;99.90;;;;;;4210791;28;20028;-72
2022/08/09 03:05:41;;;;;;;3.25;2.75;;;18.30;99.90;;;;;;4211093;28;20077;-67
2022/08/09 03:07:44;;;;;;;3.67;2.97;;;18.30;99.90;;;;;;4210230;28;20039;-66
2022/08/09 03:09:47;;;;;;;3.17;2.47;;;18.20;99.90;;;;;;4211214;28;20093;-68
2022/08/09 03:11:49;;;;;;;3.10;2.80;;;18.30;99.90;;;;;;4210265;28;20161;-65
2022/08/09 03:13:52;;;;;;;5.40;2.97;;;18.20;99.90;;;;;;4209744;28;20545;-66
2022/08/09 03:15:55;;;;;;;3.47;2.63;;;18.30;99.90;;;;;;4210194;28;20077;-67
2022/08/09 03:17:57;;;;;;;4.18;2.75;;;18.20;99.90;;;;;;4211206;28;20090;-67
2022/08/09 03:20:02;;;;;;;3.78;2.42;;;18.30;99.90;;;;;;4209893;28;20042;-66
2022/08/09 03:22:04;;;;;;;3.65;3.35;;;18.30;99.90;;;;;;4210989;28;20517;-65
2022/08/09 03:24:06;;;;;;;3.97;3.20;;;18.40;99.90;;;;;;4210230;28;20032;-68
2022/08/09 03:26:07;;;;;;;5.32;3.42;;;18.40;99.90;;;;;;4211685;28;20092;-66
2022/08/09 03:28:10;;;;;;;3.58;3.08;;;18.40;99.90;;;;;;4210045;28;20032;-66
2022/08/09 03:30:15;;;;;;;5.22;3.33;;;18.40;99.90;;;;;;4211192;28;20091;-66
2022/08/09 03:32:18;;;;;;;4.43;3.45;;;18.50;99.90;;;;;;4209679;28;20057;-66
2022/08/09 03:34:19;;;;;;;3.80;3.03;;;18.50;99.90;;;;;;4210974;28;20021;-67
2022/08/09 03:36:22;;;;;;;3.85;2.67;;;18.60;99.90;;;;;;4210066;28;20030;-66
2022/08/09 03:38:23;;;;;;;3.33;2.97;;;18.60;99.90;;;;;;4210766;28;20073;-67
2022/08/09 03:40:24;;;;;;;4.00;3.63;;;18.70;99.90;;;;;;4210522;28;20504;-66
2022/08/09 03:42:25;;;;;;;3.13;2.83;;;18.70;99.90;;;;;;4210123;28;20048;-66
2022/08/09 03:44:28;;;;;;;5.13;3.50;;;18.60;99.90;;;;;;4210755;28;20028;-66
2022/08/09 03:46:30;;;;;;;4.80;3.67;;;18.60;99.90;;;;;;4209800;28;20020;-67
2022/08/09 03:48:34;;;;;;;5.85;3.13;;;18.70;99.90;;;;;;4210661;28;20036;-66
2022/08/09 03:50:36;;;;;;;6.80;4.63;;;18.70;99.90;;;;;;4209333;28;20085;-66
2022/08/09 03:52:41;;;;;;;6.93;3.70;;;18.70;99.90;;;;;;4210661;28;20069;-66
2022/08/09 03:54:43;;;;;;;5.10;4.40;;;18.80;99.90;;;;;;4209847;28;20024;-67
2022/08/09 03:56:45;;;;;;;7.30;5.70;;;18.80;99.90;;;;;;4211337;28;20070;-66
2022/08/09 03:58:46;;;;;;;18.33;9.32;;;18.80;99.90;;;;;;4209313;28;20081;-66
2022/08/09 04:00:48;;;;;;;12.60;7.53;;;18.90;99.90;;;;;;4210788;28;20422;-66
2022/08/09 04:02:50;;;;;;;9.50;6.82;;;18.90;99.90;;;;;;4209381;28;20044;-66
2022/08/09 04:04:51;;;;;;;16.75;9.23;;;19.00;99.90;;;;;;4210977;28;20081;-65
2022/08/09 04:06:53;;;;;;;12.05;7.63;;;19.10;99.90;;;;;;4209465;28;20121;-65
2022/08/09 04:08:54;;;;;;;12.48;8.73;;;19.20;99.90;;;;;;4211422;28;20097;-66
2022/08/09 04:10:55;;;;;;;11.52;8.07;;;19.30;99.90;;;;;;4212766;28;20475;-65
2022/08/09 04:12:59;;;;;;;9.98;7.28;;;19.40;99.90;;;;;;4213233;28;20035;-66
2022/08/09 04:15:00;;;;;;;11.43;7.53;;;19.50;99.90;;;;;;4212517;28;20044;-72
2022/08/09 04:17:01;;;;;;;10.55;6.90;;;19.60;99.90;;;;;;4212688;28;20036;-66
2022/08/09 04:19:02;;;;;;;10.90;7.57;;;19.70;99.90;;;;;;4213391;28;20036;-69
2022/08/09 04:21:04;;;;;;;7.93;6.45;;;19.90;99.90;;;;;;4212217;28;20100;-70
2022/08/09 04:23:05;;;;;;;9.30;6.35;;;20.10;99.90;;;;;;4212555;28;20044;-65
2022/08/09 04:25:07;;;;;;;8.50;7.28;;;20.50;99.90;;;;;;4212516;28;20028;-65
2022/08/09 04:27:08;;;;;;;7.75;6.28;;;20.50;99.90;;;;;;4213925;28;20077;-65
2022/08/09 04:29:09;;;;;;;8.90;6.47;;;20.60;99.90;;;;;;4212104;28;20050;-66
2022/08/09 04:31:10;;;;;;;16.13;14.50;;;20.50;99.90;;;;;;4212805;28;20090;-65
2022/08/09 04:33:12;;;;;;;14.07;9.75;;;20.50;99.90;;;;;;4212199;28;20494;-66
2022/08/09 04:35:13;;;;;;;16.67;10.32;;;20.40;99.90;;;;;;4211779;28;20032;-64
2022/08/09 04:37:14;;;;;;;12.23;7.85;;;20.30;99.90;;;;;;4211582;28;20048;-67
2022/08/09 04:39:15;;;;;;;16.50;8.10;;;20.40;99.90;;;;;;4213009;28;20044;-64
2022/08/09 04:41:16;;;;;;;12.80;7.60;;;20.40;99.90;;;;;;4210203;28;20048;-65
2022/08/09 04:43:18;;;;;;;19.00;12.93;;;20.50;99.90;;;;;;4212718;28;20085;-64
2022/08/09 04:45:19;;;;;;;18.15;12.40;;;20.60;99.90;;;;;;4201327;28;20048;-64
2022/08/09 04:47:20;;;;;;;13.80;8.77;;;20.80;99.90;;;;;;4197210;28;20048;-65
2022/08/09 04:49:21;;;;;;;17.05;12.68;;;20.90;99.90;;;;;;4195932;28;20074;-63
2022/08/09 04:51:22;;;;;;;17.50;11.43;;;21.00;99.90;;;;;;4194363;28;20510;-67
2022/08/09 04:53:24;;;;;;;16.52;12.85;;;21.10;99.90;;;;;;4196140;28;20036;-65
2022/08/09 04:55:25;;;;;;;13.00;11.60;;;21.20;99.90;;;;;;4195285;28;20070;-66
2022/08/09 04:57:27;;;;;;;16.30;11.20;;;21.30;99.90;;;;;;4196537;28;20032;-66
2022/08/09 04:59:28;;;;;;;12.43;8.80;;;21.30;99.90;;;;;;4195020;28;20422;-65
2022/08/09 05:01:29;;;;;;;9.95;6.95;;;21.40;99.90;;;;;;4195045;28;20094;-65
2022/08/09 05:03:30;;;;;;;11.27;6.70;;;21.40;99.90;;;;;;4194869;28;20040;-68
2022/08/09 05:05:31;;;;;;;8.02;6.32;;;21.40;99.90;;;;;;4195933;28;20078;-66
2022/08/09 05:07:32;;;;;;;14.68;8.93;;;21.40;99.90;;;;;;4194381;28;20032;-66
2022/08/09 05:09:34;;;;;;;21.00;13.27;;;21.50;99.90;;;;;;4210175;28;20040;-71
2022/08/09 05:11:35;;;;;;;8.90;6.93;;;21.50;99.90;;;;;;4210651;28;20572;-63
2022/08/09 05:13:36;;;;;;;8.52;6.22;;;21.60;99.90;;;;;;4212122;28;20081;-65
2022/08/09 05:15:37;;;;;;;8.52;6.43;;;21.70;99.90;;;;;;4211623;28;20119;-67
2022/08/09 05:17:39;;;;;;;7.63;6.03;;;21.80;99.90;;;;;;4211622;28;20472;-66
2022/08/09 05:19:40;;;;;;;9.55;6.28;;;21.90;99.90;;;;;;4211904;28;20036;-66
2022/08/09 05:21:43;;;;;;;9.27;6.60;;;22.00;99.90;;;;;;4210653;28;20028;-66
2022/08/09 05:23:44;;;;;;;9.63;5.70;;;22.20;99.90;;;;;;4212270;28;20021;-66
2022/08/09 05:25:45;;;;;;;13.07;6.43;;;22.30;99.90;;;;;;4211400;28;20035;-66
2022/08/09 05:27:47;;;;;;;12.93;6.78;;;22.50;99.90;;;;;;4212444;28;20082;-66
2022/08/09 05:29:48;;;;;;;9.63;6.53;;;22.90;99.90;;;;;;4211078;28;20039;-65
2022/08/09 05:31:51;;;;;;;8.55;5.75;;;23.10;99.90;;;;;;4212125;28;20028;-65
2022/08/09 05:33:52;;;;;;;11.48;6.90;;;23.10;99.90;;;;;;4210693;28;20047;-65
2022/08/09 05:35:53;;;;;;;10.95;6.88;;;23.10;99.90;;;;;;4212315;28;20093;-66
2022/08/09 05:37:56;;;;;;;14.90;9.18;;;23.20;99.90;;;;;;4210491;28;20040;-65
2022/08/09 05:39:57;;;;;;;12.55;9.07;;;23.00;99.90;;;;;;4211706;28;20066;-65
2022/08/09 05:41:58;;;;;;;19.63;11.63;;;22.70;99.90;;;;;;4210848;28;20016;-65
2022/08/09 05:43:59;;;;;;;13.13;7.78;;;22.50;99.90;;;;;;4211845;28;20546;-66
2022/08/09 05:46:02;;;;;;;9.48;7.07;;;22.60;99.90;;;;;;4210760;28;20040;-66
2022/08/09 05:48:03;;;;;;;8.95;7.88;;;22.40;99.90;;;;;;4209943;28;20036;-66
2022/08/09 05:50:05;;;;;;;12.65;7.28;;;22.20;99.90;;;;;;4211066;28;20486;-65
2022/08/09 05:52:06;;;;;;;6.15;4.38;;;22.20;99.90;;;;;;4210484;28;20040;-65
2022/08/09 05:56:17;;;;;;;7.63;5.75;;;22.20;99.90;;;;;;4208382;28;20082;-67
2022/08/09 05:58:19;;;;;;;9.90;6.43;;;22.20;99.90;;;;;;4210030;28;20086;-67
2022/08/09 06:00:20;;;;;;;12.77;7.97;;;22.20;99.90;;;;;;4211635;28;20040;-67
2022/08/09 06:02:21;;;;;;;18.17;8.38;;;22.10;99.90;;;;;;4210289;28;20108;-68
2022/08/09 06:04:22;;;;;;;8.88;6.78;;;22.10;99.90;;;;;;4211918;28;20073;-72
2022/08/09 06:06:24;;;;;;;12.35;6.82;;;22.10;99.90;;;;;;4210687;28;20077;-66
2022/08/09 06:08:25;;;;;;;13.60;7.45;;;22.20;99.90;;;;;;4211843;28;20036;-66
2022/08/09 06:10:36;;;;;;;11.45;7.38;;;22.30;99.90;;;;;;4210487;28;20024;-71
2022/08/09 06:12:38;;;;;;;9.75;6.85;;;22.30;99.90;;;;;;4211782;28;20032;-68
2022/08/09 06:14:39;;;;;;;11.30;6.45;;;22.20;99.90;;;;;;4209934;28;20084;-68
2022/08/09 06:16:40;;;;;;;14.10;7.35;;;22.20;99.90;;;;;;4211319;28;20077;-67
2022/08/09 06:18:41;;;;;;;11.45;6.93;;;22.10;99.90;;;;;;4210545;28;20028;-66
2022/08/09 06:20:42;;;;;;;11.98;6.80;;;22.10;99.90;;;;;;4210957;28;20077;-66
2022/08/09 06:22:44;;;;;;;14.00;6.78;;;22.10;99.90;;;;;;4210918;28;20032;-67
2022/08/09 06:24:45;;;;;;;8.68;7.18;;;22.10;99.90;;;;;;4210670;28;20459;-66
2022/08/09 06:26:46;;;;;;;8.75;6.45;;;22.10;99.90;;;;;;4210119;28;20098;-70
2022/08/09 06:28:52;;;;;;;7.95;5.72;;;22.10;99.90;;;;;;4209962;28;20032;-66
2022/08/09 06:30:54;;;;;;;7.93;5.55;;;22.20;99.90;;;;;;4210988;28;20078;-66
2022/08/09 06:32:55;;;;;;;7.63;5.30;;;22.20;99.90;;;;;;4209527;28;20047;-66
2022/08/09 06:34:56;;;;;;;8.52;5.53;;;22.30;99.90;;;;;;4211083;28;20032;-67
2022/08/09 06:36:57;;;;;;;5.72;4.88;;;22.40;99.90;;;;;;4210301;28;20039;-68
2022/08/09 06:38:58;;;;;;;6.53;4.57;;;22.60;99.90;;;;;;4211251;28;20016;-67
2022/08/09 06:40:59;;;;;;;6.78;4.93;;;22.70;99.90;;;;;;4209834;28;20425;-67
2022/08/09 06:43:00;;;;;;;7.50;4.40;;;22.80;99.90;;;;;;4211207;28;20031;-66
2022/08/09 06:45:02;;;;;;;6.20;4.25;;;23.00;99.90;;;;;;4210220;28;20035;-66
2022/08/09 06:47:03;;;;;;;8.35;4.95;;;23.20;99.90;;;;;;4211398;28;20032;-68
2022/08/09 06:49:04;;;;;;;4.75;4.13;;;23.30;99.90;;;;;;4210227;28;20840;-66
2022/08/09 06:51:05;;;;;;;5.40;4.13;;;23.30;99.90;;;;;;4210793;28;20447;-67
2022/08/09 06:53:07;;;;;;;7.20;4.38;;;23.50;99.90;;;;;;4210445;28;20109;-65
2022/08/09 06:55:08;;;;;;;8.77;4.85;;;23.70;99.90;;;;;;4210392;28;20441;-66
2022/08/09 06:57:10;;;;;;;8.27;4.72;;;23.90;99.90;;;;;;4209989;28;20120;-67
2022/08/09 06:59:12;;;;;;;6.55;4.55;;;24.00;99.90;;;;;;4210222;28;20097;-70
2022/08/09 07:01:13;;;;;;;8.18;4.32;;;24.10;99.90;;;;;;4210945;28;20028;-65
2022/08/09 07:03:14;;;;;;;7.18;3.95;;;24.30;99.90;;;;;;4209335;28;20117;-66
2022/08/09 07:05:15;;;;;;;4.57;4.10;;;24.50;99.90;;;;;;4210700;28;20442;-67
2022/08/09 07:07:16;;;;;;;5.35;4.05;;;24.70;99.90;;;;;;4209493;28;20698;-68
2022/08/09 07:09:17;;;;;;;5.00;4.28;;;24.90;99.90;;;;;;4211141;28;20479;-66
2022/08/09 07:11:19;;;;;;;7.22;5.53;;;25.00;99.90;;;;;;4209680;28;20098;-66
2022/08/09 07:13:20;;;;;;;9.40;4.60;;;25.10;99.90;;;;;;4210965;28;20108;-65
2022/08/09 07:15:21;;;;;;;4.85;4.05;;;25.00;99.90;;;;;;4209877;28;20078;-66
2022/08/09 07:17:23;;;;;;;5.70;4.35;;;24.90;99.90;;;;;;4211025;28;20035;-66
2022/08/09 07:19:25;;;;;;;5.75;4.07;;;24.80;99.90;;;;;;4208578;28;20139;-67
2022/08/09 07:21:26;;;;;;;4.15;3.85;;;24.70;99.90;;;;;;4210711;28;20086;-66
2022/08/09 07:23:27;;;;;;;6.00;4.00;;;24.70;99.90;;;;;;4209795;28;20040;-66
2022/08/09 07:25:28;;;;;;;4.00;3.58;;;24.90;99.90;;;;;;4209928;28;20082;-66
2022/08/09 07:27:30;;;;;;;3.80;3.50;;;24.90;99.90;;;;;;4209488;28;20130;-68
2022/08/09 07:29:31;;;;;;;5.03;3.35;;;24.80;99.90;;;;;;4209210;28;20089;-66
2022/08/09 07:31:32;;;;;;;3.28;3.00;;;24.60;99.90;;;;;;4209967;28;20398;-67
2022/08/09 07:33:33;;;;;;;3.63;3.33;;;24.50;99.90;;;;;;4209532;28;20024;-68
2022/08/09 07:35:34;;;;;;;5.82;3.38;;;24.40;99.90;;;;;;4210573;28;20039;-66
2022/08/09 07:37:36;;;;;;;6.95;4.28;;;24.50;99.90;;;;;;4209625;28;20090;-65
2022/08/09 07:39:38;;;;;;;7.60;4.00;;;24.60;99.90;;;;;;4210282;28;20044;-66
2022/08/09 07:41:40;;;;;;;6.47;3.75;;;24.60;99.90;;;;;;4209510;28;20016;-66
2022/08/09 07:43:41;;;;;;;4.47;3.20;;;24.60;99.90;;;;;;4211630;28;20085;-66
2022/08/09 07:45:42;;;;;;;7.38;3.15;;;24.80;99.90;;;;;;4212013;28;20036;-66
2022/08/09 07:47:43;;;;;;;3.95;3.55;;;24.70;99.90;;;;;;4213730;28;20081;-68
2022/08/09 07:49:44;;;;;;;3.42;3.13;;;24.50;99.90;;;;;;4212736;28;20567;-66
2022/08/09 07:51:45;;;;;;;4.82;4.05;;;24.60;99.90;;;;;;4213862;28;20085;-66
2022/08/09 07:53:48;;;;;;;7.47;3.53;;;24.60;99.90;;;;;;4212811;28;20028;-67
2022/08/09 07:55:49;;;;;;;5.18;3.63;;;24.70;99.90;;;;;;4213232;28;20052;-69
2022/08/09 07:57:50;;;;;;;3.78;3.38;;;24.80;99.90;;;;;;4212540;28;20433;-66
2022/08/09 07:59:52;;;;;;;3.70;3.40;;;24.90;99.90;;;;;;4212371;28;20036;-66
2022/08/09 08:01:54;;;;;;;7.13;5.22;;;25.00;99.90;;;;;;4213415;28;20090;-69
2022/08/09 08:03:55;;;;;;;4.22;3.42;;;25.10;99.90;;;;;;4212474;28;20032;-66
2022/08/09 08:05:56;;;;;;;5.50;3.35;;;25.00;99.90;;;;;;4213510;28;20044;-66
2022/08/09 08:07:57;;;;;;;6.10;3.75;;;24.90;99.90;;;;;;4212465;28;20036;-66
2022/08/09 08:09:59;;;;;;;4.78;3.35;;;24.80;99.90;;;;;;4213596;28;20596;-66
2022/08/09 08:12:00;;;;;;;3.20;2.92;;;24.80;99.90;;;;;;4212331;28;20139;-66
2022/08/09 08:14:01;;;;;;;4.28;3.85;;;24.70;99.90;;;;;;4212686;28;20433;-65
2022/08/09 08:16:02;;;;;;;4.32;3.22;;;24.70;99.90;;;;;;4211865;28;20035;-65
2022/08/09 08:18:03;;;;;;;5.13;3.08;;;24.70;99.90;;;;;;4212403;28;20036;-65
2022/08/09 08:20:05;;;;;;;4.68;2.72;;;24.60;99.90;;;;;;4211248;28;20085;-66
2022/08/09 08:22:06;;;;;;;4.95;3.00;;;24.60;99.90;;;;;;4213131;28;20089;-66
2022/08/09 08:24:07;;;;;;;4.80;2.97;;;24.60;99.90;;;;;;4212143;28;20048;-66
2022/08/09 08:26:08;;;;;;;4.78;2.95;;;24.50;99.90;;;;;;4212592;28;20032;-66
2022/08/09 08:28:09;;;;;;;4.00;2.70;;;24.50;99.90;;;;;;4212018;28;20036;-66
2022/08/09 08:30:12;;;;;;;4.85;2.67;;;24.40;99.90;;;;;;4212020;28;20372;-67
2022/08/09 08:32:13;;;;;;;4.57;3.30;;;24.30;99.90;;;;;;4212661;28;20016;-66
2022/08/09 08:34:14;;;;;;;4.90;2.90;;;24.40;99.90;;;;;;4212046;28;20423;-67
2022/08/09 08:36:16;;;;;;;2.90;2.70;;;24.50;99.90;;;;;;4212125;28;20074;-67
2022/08/09 08:38:17;;;;;;;4.18;2.83;;;24.70;99.90;;;;;;4211897;28;20032;-67
2022/08/09 08:40:18;;;;;;;2.67;2.47;;;24.90;99.90;;;;;;4212693;28;20433;-66
2022/08/09 08:42:20;;;;;;;3.30;2.70;;;25.00;99.90;;;;;;4211892;28;20033;-66
2022/08/09 08:44:22;;;;;;;2.47;2.28;;;25.20;99.90;;;;;;4212918;28;20771;-66
2022/08/09 08:46:29;;;;;;;2.95;2.75;;;25.30;99.90;;;;;;4211004;28;20433;-67
2022/08/09 08:48:32;;;;;;;3.03;2.70;;;25.30;99.90;;;;;;4211951;28;20097;-66
2022/08/09 08:50:33;;;;;;;3.58;2.78;;;25.40;99.90;;;;;;4211844;28;20085;-67
2022/08/09 08:52:34;;;;;;;4.15;2.65;;;25.50;99.90;;;;;;4212650;28;20093;-66
2022/08/09 08:54:36;;;;;;;3.10;2.45;;;25.70;99.90;;;;;;4210800;28;20068;-66
2022/08/09 08:56:38;;;;;;;6.00;2.80;;;26.00;99.90;;;;;;4179287;28;20056;-67
2022/08/09 08:58:40;;;;;;;3.65;3.20;;;26.30;99.90;;;;;;4178555;28;20115;-68
2022/08/09 09:00:43;;;;;;;3.90;2.92;;;26.50;99.90;;;;;;4178961;28;20033;-67
2022/08/09 09:02:46;;;;;;;3.33;2.90;;;26.40;99.90;;;;;;4177335;28;20033;-68
2022/08/09 09:04:47;;;;;;;3.85;2.95;;;26.40;99.90;;;;;;4178158;28;20091;-67
2022/08/09 09:06:52;;;;;;;4.38;2.70;;;26.40;99.90;;;;;;4178712;28;20542;-66
2022/08/09 09:08:54;;;;;;;3.42;3.13;;;26.20;99.90;;;;;;4178200;28;20041;-66
2022/08/09 09:10:56;;;;;;;4.13;3.00;;;26.00;99.90;;;;;;4179174;28;20040;-67
2022/08/09 09:12:58;;;;;;;3.28;2.80;;;25.90;99.90;;;;;;4178091;28;20083;-67
2022/08/09 09:15:00;;;;;;;4.03;2.60;;;26.00;99.90;;;;;;4179202;28;20029;-67
2022/08/09 09:17:01;;;;;;;4.93;2.65;;;26.00;99.90;;;;;;4177849;28;20033;-67
2022/08/09 09:19:08;;;;;;;6.32;3.30;;;26.10;99.90;;;;;;4178912;28;20103;-66
2022/08/09 09:21:09;;;;;;;4.60;2.70;;;26.20;99.90;;;;;;4176374;28;20029;-66
2022/08/09 09:23:10;;;;;;;3.90;3.50;;;26.10;99.90;;;;;;4179085;28;20552;-69
2022/08/09 09:25:14;;;;;;;3.47;3.17;;;26.00;99.90;;;;;;4177527;28;20029;-68
2022/08/09 09:27:21;;;;;;;4.20;3.25;;;26.10;99.90;;;;;;4178844;28;20481;-66
2022/08/09 09:29:33;;;;;;;3.85;3.35;;;26.20;99.90;;;;;;4177626;28;20086;-67
2022/08/09 09:31:34;;;;;;;6.88;3.33;;;26.20;99.90;;;;;;4179010;28;20033;-66
2022/08/09 09:33:36;;;;;;;8.15;3.70;;;26.10;99.90;;;;;;4177691;28;20485;-67
2022/08/09 09:35:54;;;;;;;4.55;3.05;;;25.90;99.90;;;;;;4178349;28;20037;-66
2022/08/09 09:37:56;;;;;;;4.32;3.70;;;25.80;99.90;;;;;;4177606;28;20033;-66
2022/08/09 09:39:57;;;;;;;5.93;3.50;;;25.80;99.90;;;;;;4178642;28;20102;-67
2022/08/09 09:42:02;;;;;;;5.38;3.42;;;25.70;99.90;;;;;;4177955;28;20091;-67
2022/08/09 09:44:05;;;;;;;4.35;3.58;;;25.50;99.90;;;;;;4177992;28;20053;-66
2022/08/09 09:46:07;;;;;;;5.45;4.18;;;25.40;99.90;;;;;;4177963;28;20024;-66
2022/08/09 09:48:08;;;;;;;5.28;3.40;;;25.40;99.90;;;;;;4178237;28;20032;-66
2022/08/09 09:50:09;;;;;;;7.95;3.80;;;25.40;99.90;;;;;;4177954;28;20032;-65
2022/08/09 09:52:11;;;;;;;3.97;3.58;;;25.40;99.90;;;;;;4176123;28;20099;-66
2022/08/09 09:54:20;;;;;;;3.33;3.03;;;25.50;99.90;;;;;;4177859;28;20087;-65
2022/08/09 09:56:34;;;;;;;6.38;4.03;;;25.30;99.90;;;;;;4206385;28;20109;-66
2022/08/09 09:58:45;;;;;;;7.10;3.83;;;25.40;99.90;;;;;;4211605;28;20101;-66
2022/08/09 10:00:54;;;;;;;3.40;3.10;;;25.50;99.90;;;;;;4210291;28;20062;-68
2022/08/09 10:02:55;;;;;;;5.65;3.28;;;25.50;99.90;;;;;;4211606;28;20402;-65
2022/08/09 10:05:09;;;;;;;6.22;3.22;;;25.40;99.90;;;;;;4210492;28;20020;-66
2022/08/09 10:07:22;;;;;;;7.38;3.72;;;25.50;99.90;;;;;;4210568;28;20093;-65
2022/08/09 10:09:23;;;;;;;6.60;3.53;;;25.50;99.90;;;;;;4209881;28;20096;-66
2022/08/09 10:11:27;;;;;;;4.32;3.28;;;25.60;99.90;;;;;;4211478;28;20070;-66
2022/08/09 10:13:38;;;;;;;5.13;3.50;;;25.50;99.90;;;;;;4191523;28;20032;-66
2022/08/09 10:15:48;;;;;;;3.75;3.33;;;25.60;99.90;;;;;;4211478;28;20107;-65
2022/08/09 10:17:52;;;;;;;5.72;3.20;;;25.60;99.90;;;;;;4209467;28;20044;-66
2022/08/09 10:19:53;;;;;;;6.35;3.80;;;25.70;99.90;;;;;;4211369;28;20483;-66
2022/08/09 10:21:54;;;;;;;5.30;3.70;;;25.80;99.90;;;;;;4210263;28;20028;-67
2022/08/09 10:24:00;;;;;;;8.77;4.63;;;25.90;99.90;;;;;;4211470;28;20039;-66
2022/08/09 10:26:02;;;;;;;8.93;3.78;;;26.00;99.90;;;;;;4209575;28;20143;-65
2022/08/09 10:28:05;;;;;;;4.70;3.45;;;26.00;99.90;;;;;;4211398;28;20073;-67
2022/08/09 10:30:07;;;;;;;10.23;4.05;;;26.20;99.90;;;;;;4210177;28;20036;-65
2022/08/09 10:32:08;;;;;;;5.22;3.53;;;26.20;99.90;;;;;;4210785;28;20040;-65
2022/08/09 10:34:12;;;;;;;4.50;3.33;;;26.20;99.90;;;;;;4210010;28;20036;-68
2022/08/09 10:36:14;;;;;;;4.75;3.67;;;26.40;99.90;;;;;;4211241;28;20422;-66
2022/08/09 10:38:17;;;;;;;5.93;4.20;;;26.50;99.90;;;;;;4210310;28;20344;-67
2022/08/09 10:40:19;;;;;;;7.22;4.00;;;26.70;99.90;;;;;;4209884;28;20446;-67
2022/08/09 10:42:21;;;;;;;3.72;3.42;;;26.60;99.90;;;;;;4210556;28;20020;-68